Time;durP1;ratioP1;P1;durP2;ratioP2;P2;SDS_P1;SDS_P2;PMS_P1;PMS_P2;Temp;Humidity;BMP_temperature;BMP_pressure;BME280_temperature;BME280_humidity;BME280_pressure;Samples;Min_cycle;Max_cycle;Signal;HPM_P1;HPM_P2
2022/08/30 00:02:53;;;;;;;31.20;29.00;;;19.20;78.80;;;;;;5025406;28;20626;-70
2022/08/30 00:05:21;;;;;;;29.50;27.87;;;19.20;78.70;;;;;;5027117;28;20926;-71
2022/08/30 00:07:48;;;;;;;30.97;28.97;;;19.20;78.80;;;;;;5027885;28;20460;-72
2022/08/30 00:10:16;;;;;;;31.27;29.50;;;19.20;78.70;;;;;;5028543;28;21043;-72
2022/08/30 00:12:43;;;;;;;30.30;28.47;;;19.10;78.80;;;;;;5026829;28;20476;-71
2022/08/30 00:15:12;;;;;;;32.13;30.43;;;19.10;78.80;;;;;;5027559;28;20480;-70
2022/08/30 00:17:39;;;;;;;32.77;30.87;;;19.00;79.10;;;;;;5027722;28;20462;-71
2022/08/30 00:20:11;;;;;;;30.70;28.97;;;19.00;79.20;;;;;;5029074;28;20531;-70
2022/08/30 00:22:38;;;;;;;30.40;28.57;;;19.00;79.20;;;;;;5025168;28;20490;-70
2022/08/30 00:25:06;;;;;;;28.40;26.70;;;19.00;79.20;;;;;;5026717;28;21008;-70
2022/08/30 00:27:34;;;;;;;30.57;28.60;;;19.00;79.20;;;;;;5026900;28;20463;-70
2022/08/30 00:30:01;;;;;;;30.60;28.70;;;19.00;79.10;;;;;;5028319;28;20545;-70
2022/08/30 00:32:28;;;;;;;27.40;25.80;;;19.00;79.40;;;;;;5027634;28;20474;-70
2022/08/30 00:34:55;;;;;;;29.80;27.73;;;18.90;79.50;;;;;;5027058;28;20458;-70
2022/08/30 00:37:24;;;;;;;29.40;27.70;;;18.90;79.60;;;;;;5024899;28;20566;-70
2022/08/30 00:39:51;;;;;;;32.20;30.20;;;18.80;79.70;;;;;;5026104;28;20912;-71
2022/08/30 00:42:20;;;;;;;31.23;29.33;;;18.80;80.10;;;;;;5027456;28;20505;-70
2022/08/30 00:44:47;;;;;;;31.50;29.80;;;18.80;80.50;;;;;;5022339;28;20470;-69
2022/08/30 00:47:14;;;;;;;29.47;27.63;;;18.70;80.50;;;;;;5025581;28;20569;-69
2022/08/30 00:49:44;;;;;;;28.00;26.50;;;18.70;80.40;;;;;;5028486;28;20536;-70
2022/08/30 00:52:11;;;;;;;30.10;28.33;;;18.70;80.20;;;;;;5025690;28;20527;-70
2022/08/30 00:54:44;;;;;;;31.23;28.93;;;18.70;80.20;;;;;;5025702;28;21011;-70
2022/08/30 00:57:12;;;;;;;31.57;29.87;;;18.60;80.40;;;;;;5028062;28;20470;-70
2022/08/30 00:59:39;;;;;;;31.57;29.77;;;18.60;80.60;;;;;;5026604;28;20460;-70
2022/08/30 01:02:07;;;;;;;29.50;27.90;;;18.60;80.60;;;;;;5024722;28;20915;-70
2022/08/30 01:04:35;;;;;;;29.30;27.70;;;18.60;80.80;;;;;;5027526;28;20551;-70
2022/08/30 01:07:02;;;;;;;31.47;29.77;;;18.60;80.70;;;;;;5026090;28;20461;-70
2022/08/30 01:09:29;;;;;;;31.53;29.83;;;18.60;80.80;;;;;;5027319;28;20546;-70
2022/08/30 01:11:57;;;;;;;29.83;28.33;;;18.60;80.80;;;;;;5026508;28;20968;-70
2022/08/30 01:14:25;;;;;;;30.73;29.13;;;18.50;80.80;;;;;;5023456;28;20577;-70
2022/08/30 01:16:52;;;;;;;31.23;29.23;;;18.50;80.60;;;;;;5026471;28;20459;-69
2022/08/30 01:19:29;;;;;;;30.90;29.20;;;18.40;80.80;;;;;;5028671;28;21253;-69
2022/08/30 01:22:01;;;;;;;32.37;30.67;;;18.30;81.30;;;;;;5021746;28;20490;-70
2022/08/30 01:24:30;;;;;;;31.50;29.80;;;18.30;81.50;;;;;;5026087;28;20937;-70
2022/08/30 01:26:57;;;;;;;30.77;28.80;;;18.30;81.50;;;;;;5026062;28;20580;-70
2022/08/30 01:29:25;;;;;;;30.57;28.77;;;18.30;81.50;;;;;;5026675;28;20448;-70
2022/08/30 01:31:52;;;;;;;30.80;29.00;;;18.30;81.50;;;;;;5025495;28;20875;-69
2022/08/30 01:34:19;;;;;;;31.10;29.40;;;18.20;81.50;;;;;;5027639;28;20592;-70
2022/08/30 01:36:46;;;;;;;30.23;28.63;;;18.10;81.70;;;;;;5024944;28;20450;-70
2022/08/30 01:39:15;;;;;;;29.67;28.07;;;18.20;81.80;;;;;;5027434;28;20459;-70
2022/08/30 01:41:44;;;;;;;28.70;27.10;;;18.10;82.00;;;;;;5023341;28;20490;-70
2022/08/30 01:44:12;;;;;;;29.53;27.83;;;18.10;82.20;;;;;;5027509;28;20546;-70
2022/08/30 01:46:44;;;;;;;31.57;29.70;;;18.10;82.40;;;;;;5023447;28;20478;-70
2022/08/30 01:49:15;;;;;;;29.40;27.70;;;18.10;82.20;;;;;;5026478;28;20480;-70
2022/08/30 01:51:43;;;;;;;29.60;27.90;;;18.10;82.20;;;;;;5021678;28;21043;-70
2022/08/30 01:54:10;;;;;;;30.20;28.50;;;18.10;82.30;;;;;;5028557;28;20941;-70
2022/08/30 01:56:37;;;;;;;29.50;27.80;;;18.10;82.30;;;;;;5023502;28;20822;-70
2022/08/30 01:59:06;;;;;;;29.60;27.90;;;18.10;82.30;;;;;;5026282;28;20867;-70
2022/08/30 02:01:35;;;;;;;29.47;27.87;;;18.00;82.50;;;;;;5025257;28;20476;-70
2022/08/30 02:04:03;;;;;;;29.27;27.40;;;17.90;82.70;;;;;;5023940;28;20510;-70
2022/08/30 02:06:30;;;;;;;30.00;28.50;;;17.90;83.00;;;;;;5024592;28;20914;-70
2022/08/30 02:08:57;;;;;;;28.50;26.80;;;17.90;83.20;;;;;;5026547;28;20471;-70
2022/08/30 02:11:25;;;;;;;28.77;27.17;;;17.80;83.30;;;;;;5023192;28;20476;-70
2022/08/30 02:13:52;;;;;;;28.47;26.77;;;17.80;83.20;;;;;;5026397;28;20564;-69
2022/08/30 02:16:23;;;;;;;29.43;27.90;;;17.90;83.00;;;;;;5023991;28;21039;-70
2022/08/30 02:18:51;;;;;;;28.43;26.73;;;17.90;82.80;;;;;;5025581;28;20460;-69
2022/08/30 02:21:17;;;;;;;29.07;27.43;;;17.80;83.20;;;;;;5030265;28;20475;-70
2022/08/30 02:23:44;;;;;;;33.20;31.50;;;17.80;83.40;;;;;;5030826;28;21033;-69
2022/08/30 02:26:12;;;;;;;33.33;31.63;;;17.70;83.50;;;;;;5030352;28;20547;-70
2022/08/30 02:28:40;;;;;;;37.97;35.90;;;17.70;83.70;;;;;;5029361;28;20547;-70
2022/08/30 02:31:07;;;;;;;29.90;28.30;;;17.70;83.90;;;;;;5030430;28;20574;-70
2022/08/30 02:33:35;;;;;;;29.23;27.73;;;17.60;84.10;;;;;;5029445;28;20543;-70
2022/08/30 02:36:02;;;;;;;31.87;30.00;;;17.60;84.10;;;;;;5030396;28;20547;-70
2022/08/30 02:38:29;;;;;;;28.43;26.83;;;17.60;84.10;;;;;;5030039;28;20794;-70
2022/08/30 02:40:56;;;;;;;32.33;30.53;;;17.70;83.90;;;;;;5028667;28;20975;-70
2022/08/30 02:43:23;;;;;;;30.67;29.17;;;17.60;83.90;;;;;;5029036;28;20476;-70
2022/08/30 02:45:50;;;;;;;30.83;29.10;;;17.60;84.00;;;;;;5029738;28;20552;-70
2022/08/30 02:48:17;;;;;;;28.33;26.83;;;17.60;84.20;;;;;;5028588;28;20547;-70
2022/08/30 02:50:48;;;;;;;28.87;27.30;;;17.50;84.40;;;;;;5029800;28;20528;-70
2022/08/30 02:53:15;;;;;;;48.53;46.13;;;17.50;84.20;;;;;;5029817;28;20464;-70
2022/08/30 02:55:43;;;;;;;31.30;29.60;;;17.50;84.30;;;;;;5030194;28;20976;-69
2022/08/30 02:58:10;;;;;;;30.70;29.00;;;17.50;84.20;;;;;;5029283;28;20558;-69
2022/08/30 03:00:38;;;;;;;29.60;28.00;;;17.50;84.30;;;;;;5031584;28;20467;-70
2022/08/30 03:03:06;;;;;;;29.93;28.33;;;17.50;84.30;;;;;;5027435;28;20574;-69
2022/08/30 03:05:33;;;;;;;38.93;36.50;;;17.50;84.30;;;;;;5030498;28;20469;-70
2022/08/30 03:08:02;;;;;;;36.30;34.43;;;17.50;84.50;;;;;;5029488;28;20528;-70
2022/08/30 03:10:29;;;;;;;46.00;43.73;;;17.50;84.60;;;;;;5030364;28;20540;-70
2022/08/30 03:12:56;;;;;;;30.20;28.40;;;17.50;84.30;;;;;;5027919;28;20554;-70
2022/08/30 03:15:24;;;;;;;33.73;31.83;;;17.50;84.30;;;;;;5028355;28;20546;-70
2022/08/30 03:17:51;;;;;;;38.20;36.10;;;17.40;84.40;;;;;;5028384;28;20472;-69
2022/08/30 03:20:19;;;;;;;39.63;37.53;;;17.40;84.50;;;;;;5030306;28;20961;-69
2022/08/30 03:22:46;;;;;;;34.83;33.00;;;17.40;84.80;;;;;;5027501;28;20586;-70
2022/08/30 03:25:15;;;;;;;32.00;30.10;;;17.30;85.00;;;;;;5028006;28;20890;-70
2022/08/30 03:27:42;;;;;;;33.37;31.47;;;17.30;85.20;;;;;;5026942;28;20899;-70
2022/08/30 03:30:10;;;;;;;31.27;29.33;;;17.30;85.20;;;;;;5026342;28;20583;-70
2022/08/30 03:32:38;;;;;;;33.73;31.93;;;17.30;85.10;;;;;;5027635;28;20813;-70
2022/08/30 03:35:06;;;;;;;27.53;26.03;;;17.30;85.10;;;;;;5030096;28;20897;-70
2022/08/30 03:37:34;;;;;;;29.03;27.43;;;17.30;85.20;;;;;;5028148;28;20551;-70
2022/08/30 03:40:01;;;;;;;34.73;32.83;;;17.30;85.10;;;;;;5024347;28;20541;-71
2022/08/30 03:42:30;;;;;;;44.00;41.80;;;17.30;85.10;;;;;;5017610;28;21059;-70
2022/08/30 03:44:57;;;;;;;29.70;27.83;;;17.20;85.30;;;;;;5029319;28;20452;-70
2022/08/30 03:47:23;;;;;;;29.47;27.60;;;17.20;85.50;;;;;;5026315;28;20459;-70
2022/08/30 03:49:50;;;;;;;28.67;26.70;;;17.20;85.50;;;;;;5027365;28;20470;-70
2022/08/30 03:52:17;;;;;;;29.10;27.60;;;17.10;85.50;;;;;;5028770;28;21132;-70
2022/08/30 03:54:44;;;;;;;60.00;57.10;;;17.10;85.60;;;;;;5028342;28;20539;-70
2022/08/30 03:57:11;;;;;;;29.90;28.37;;;17.10;85.70;;;;;;5028128;28;20478;-70
2022/08/30 03:59:40;;;;;;;48.50;46.20;;;17.00;85.90;;;;;;5026553;28;20525;-70
2022/08/30 04:02:07;;;;;;;28.83;27.00;;;17.00;86.00;;;;;;5028544;28;21003;-70
2022/08/30 04:04:34;;;;;;;34.73;32.83;;;17.00;86.00;;;;;;5027931;28;20735;-71
2022/08/30 04:07:01;;;;;;;51.07;48.50;;;17.00;86.30;;;;;;5027176;28;20551;-71
2022/08/30 04:09:28;;;;;;;38.63;36.73;;;16.90;86.30;;;;;;5028144;28;20817;-70
2022/08/30 04:11:55;;;;;;;31.50;29.80;;;17.00;86.30;;;;;;5027590;28;20486;-72
2022/08/30 04:14:22;;;;;;;36.17;34.27;;;17.00;86.20;;;;;;5029698;28;20452;-70
2022/08/30 04:16:50;;;;;;;30.00;28.33;;;17.00;86.10;;;;;;5025734;28;20560;-70
2022/08/30 04:19:17;;;;;;;61.27;58.37;;;17.00;86.20;;;;;;5028772;28;20491;-70
2022/08/30 04:21:44;;;;;;;47.20;44.87;;;17.00;86.20;;;;;;5028216;28;20475;-70
2022/08/30 04:24:12;;;;;;;36.47;34.57;;;17.00;86.10;;;;;;5028889;28;21073;-70
2022/08/30 04:26:39;;;;;;;42.40;40.00;;;16.90;86.20;;;;;;5026656;28;20460;-70
2022/08/30 04:29:06;;;;;;;30.53;28.67;;;17.00;86.00;;;;;;5026910;28;20571;-70
2022/08/30 04:31:33;;;;;;;40.43;38.00;;;16.90;86.20;;;;;;5028587;28;20930;-71
2022/08/30 04:34:01;;;;;;;29.07;27.57;;;16.90;86.30;;;;;;5028593;28;20479;-71
2022/08/30 04:36:28;;;;;;;29.70;27.80;;;16.80;86.70;;;;;;5027623;28;20539;-70
2022/08/30 04:38:55;;;;;;;50.37;47.97;;;16.80;87.00;;;;;;5027796;28;21030;-70
2022/08/30 04:41:23;;;;;;;36.37;34.33;;;16.70;87.20;;;;;;5030322;28;20507;-70
2022/08/30 04:43:50;;;;;;;44.77;42.27;;;16.80;87.20;;;;;;5025685;28;20472;-70
2022/08/30 04:46:18;;;;;;;44.33;41.97;;;16.80;87.00;;;;;;5027566;28;20550;-78
2022/08/30 04:48:46;;;;;;;32.07;29.87;;;16.90;86.80;;;;;;5025141;28;20664;-70
2022/08/30 04:51:17;;;;;;;52.47;49.63;;;16.90;86.70;;;;;;5029948;28;20570;-70
2022/08/30 04:53:44;;;;;;;29.10;27.50;;;16.90;86.60;;;;;;5022267;28;20586;-70
2022/08/30 04:56:15;;;;;;;28.90;27.40;;;16.90;86.30;;;;;;5026878;28;20475;-70
2022/08/30 04:58:42;;;;;;;27.17;25.70;;;16.90;86.70;;;;;;5015413;28;20456;-69
2022/08/30 05:01:13;;;;;;;28.90;27.10;;;16.90;86.60;;;;;;5021996;28;20567;-70
2022/08/30 05:03:40;;;;;;;27.97;26.37;;;16.90;86.50;;;;;;5027030;28;21087;-70
2022/08/30 05:06:10;;;;;;;30.57;28.67;;;17.00;86.40;;;;;;5027986;28;20458;-69
2022/08/30 05:08:39;;;;;;;28.23;26.70;;;17.00;86.30;;;;;;5023922;28;20456;-70
2022/08/30 05:11:08;;;;;;;27.33;25.77;;;17.00;86.10;;;;;;5026130;28;20853;-70
2022/08/30 05:13:35;;;;;;;32.63;30.70;;;17.00;86.20;;;;;;5022403;28;20466;-69
2022/08/30 05:16:03;;;;;;;42.30;40.10;;;17.10;85.90;;;;;;5015939;28;20456;-70
2022/08/30 05:18:30;;;;;;;33.60;31.77;;;17.20;85.80;;;;;;5020407;28;20819;-70
2022/08/30 05:21:08;;;;;;;35.23;32.90;;;17.30;85.40;;;;;;5027307;28;20468;-70
2022/08/30 05:23:36;;;;;;;27.97;26.30;;;17.50;85.00;;;;;;5020596;28;20350;-70
2022/08/30 05:26:07;;;;;;;32.47;30.30;;;17.60;84.60;;;;;;5025626;28;20468;-70
2022/08/30 05:28:34;;;;;;;32.97;31.17;;;17.70;84.30;;;;;;5017543;28;20470;-71
2022/08/30 05:31:01;;;;;;;38.57;36.40;;;17.80;84.00;;;;;;5023874;28;21425;-71
2022/08/30 05:33:29;;;;;;;33.40;31.60;;;17.90;83.50;;;;;;5017819;28;20482;-71
2022/08/30 05:35:56;;;;;;;49.93;46.90;;;18.00;82.90;;;;;;5027801;28;20482;-71
2022/08/30 05:38:22;;;;;;;38.43;36.50;;;18.10;82.80;;;;;;5024248;28;21046;-71
2022/08/30 05:40:50;;;;;;;36.97;34.77;;;18.30;82.00;;;;;;5029243;28;20450;-71
2022/08/30 05:43:18;;;;;;;37.73;35.73;;;18.30;81.90;;;;;;5025230;28;20549;-71
2022/08/30 05:45:45;;;;;;;45.23;42.87;;;18.30;82.00;;;;;;5026447;28;21044;-71
2022/08/30 05:48:12;;;;;;;32.47;30.87;;;18.50;81.80;;;;;;5023118;28;20923;-70
2022/08/30 05:50:39;;;;;;;44.37;42.00;;;18.50;81.40;;;;;;5020227;28;20544;-70
2022/08/30 05:53:06;;;;;;;41.43;39.10;;;18.50;80.90;;;;;;5019948;28;20492;-70
2022/08/30 05:55:32;;;;;;;41.67;39.47;;;18.50;80.80;;;;;;5031403;28;20507;-70
2022/08/30 05:57:59;;;;;;;31.80;29.73;;;18.50;80.80;;;;;;5028844;28;20466;-70
2022/08/30 06:00:29;;;;;;;32.93;31.20;;;18.60;80.70;;;;;;5021662;28;20456;-70
2022/08/30 06:02:56;;;;;;;46.23;43.63;;;18.60;80.70;;;;;;5020225;28;21207;-71
2022/08/30 06:05:23;;;;;;;41.70;39.50;;;18.80;80.40;;;;;;5023363;28;20985;-71
2022/08/30 06:07:51;;;;;;;32.20;30.60;;;18.90;80.00;;;;;;5020967;28;21017;-75
2022/08/30 06:10:18;;;;;;;33.90;32.20;;;19.00;79.60;;;;;;5029284;28;20471;-77
2022/08/30 06:12:45;;;;;;;33.80;31.70;;;19.00;79.80;;;;;;5029275;28;20504;-75
2022/08/30 06:15:12;;;;;;;41.37;38.93;;;19.10;79.60;;;;;;5023495;28;20495;-77
2022/08/30 06:17:41;;;;;;;43.60;40.87;;;19.30;79.20;;;;;;5022700;28;20467;-70
2022/08/30 06:20:09;;;;;;;32.37;30.40;;;19.50;78.40;;;;;;5034152;28;20448;-70
2022/08/30 06:22:37;;;;;;;38.50;36.60;;;19.60;78.10;;;;;;5018865;28;20563;-69
2022/08/30 06:25:05;;;;;;;34.20;32.30;;;19.70;77.80;;;;;;5030512;28;20571;-70
2022/08/30 06:27:32;;;;;;;57.07;53.97;;;20.00;77.10;;;;;;5026834;28;20538;-70
2022/08/30 06:29:59;;;;;;;46.47;44.07;;;20.20;76.10;;;;;;5029528;28;22403;-70
2022/08/30 06:32:26;;;;;;;45.30;42.87;;;20.40;75.60;;;;;;5026932;28;20635;-70
2022/08/30 06:34:55;;;;;;;55.57;52.77;;;20.80;74.50;;;;;;5029124;28;21025;-69
2022/08/30 06:37:22;;;;;;;44.50;41.90;;;21.00;73.80;;;;;;5030384;28;20460;-70
2022/08/30 06:39:49;;;;;;;59.13;55.30;;;21.10;73.10;;;;;;5031980;28;20550;-70
2022/08/30 06:42:16;;;;;;;41.37;38.87;;;21.30;72.50;;;;;;5023051;28;20485;-70
2022/08/30 06:44:46;;;;;;;43.07;40.40;;;21.40;72.30;;;;;;5030939;28;20585;-70
2022/08/30 06:47:13;;;;;;;52.30;49.53;;;21.50;71.80;;;;;;5027585;28;20472;-70
2022/08/30 06:49:40;;;;;;;63.40;60.00;;;21.60;71.70;;;;;;5027820;28;20478;-70
2022/08/30 06:52:09;;;;;;;46.13;43.43;;;21.80;71.10;;;;;;5029984;28;20559;-70
2022/08/30 06:54:36;;;;;;;42.87;39.93;;;21.90;70.80;;;;;;5031822;28;20448;-70
2022/08/30 06:57:03;;;;;;;63.00;59.80;;;22.00;70.50;;;;;;5023387;28;21300;-73
2022/08/30 06:59:31;;;;;;;37.00;34.90;;;22.00;70.40;;;;;;5026221;28;20452;-70
2022/08/30 07:01:58;;;;;;;45.60;42.90;;;22.10;70.30;;;;;;5028732;28;21155;-74
2022/08/30 07:04:26;;;;;;;52.33;49.20;;;22.10;70.40;;;;;;5029852;28;20480;-70
2022/08/30 07:06:53;;;;;;;52.53;49.53;;;22.10;70.30;;;;;;5025258;28;20547;-72
2022/08/30 07:09:21;;;;;;;41.17;38.77;;;22.10;70.40;;;;;;5023585;28;20546;-70
2022/08/30 07:11:48;;;;;;;47.93;45.27;;;22.10;70.30;;;;;;5029442;28;21074;-70
2022/08/30 07:14:15;;;;;;;43.37;40.90;;;22.20;70.00;;;;;;5029716;28;20555;-70
2022/08/30 07:16:44;;;;;;;49.73;47.10;;;22.20;70.10;;;;;;5027925;28;20461;-70
2022/08/30 07:19:10;;;;;;;54.63;51.53;;;22.40;70.00;;;;;;5030133;28;20558;-70
2022/08/30 07:21:39;;;;;;;46.90;44.40;;;22.50;69.70;;;;;;5029095;28;20480;-70
2022/08/30 07:24:08;;;;;;;47.30;44.10;;;22.50;69.70;;;;;;5029993;28;20556;-70
2022/08/30 07:26:40;;;;;;;51.70;48.70;;;22.70;69.20;;;;;;5030509;28;20984;-70
2022/08/30 07:29:08;;;;;;;40.37;38.10;;;22.90;68.50;;;;;;5027129;28;20472;-71
2022/08/30 07:31:35;;;;;;;51.07;48.00;;;23.20;68.00;;;;;;5028508;28;20483;-71
2022/08/30 07:34:02;;;;;;;55.57;52.13;;;23.30;67.90;;;;;;5030370;28;20459;-71
2022/08/30 07:36:29;;;;;;;54.80;51.70;;;23.50;67.50;;;;;;5028985;28;20799;-71
2022/08/30 07:38:56;;;;;;;44.37;41.77;;;23.70;67.00;;;;;;5030479;28;20466;-71
2022/08/30 07:41:26;;;;;;;47.87;44.87;;;24.00;65.80;;;;;;5031082;28;20512;-71
2022/08/30 07:43:56;;;;;;;51.47;48.60;;;24.20;65.30;;;;;;5029612;28;20499;-71
2022/08/30 07:46:24;;;;;;;53.87;50.73;;;24.40;64.70;;;;;;5030058;28;20542;-71
2022/08/30 07:48:53;;;;;;;43.83;41.23;;;24.50;64.10;;;;;;5024857;28;20487;-71
2022/08/30 07:51:21;;;;;;;50.17;47.37;;;24.60;63.70;;;;;;5026406;28;20526;-71
2022/08/30 07:53:49;;;;;;;41.43;39.20;;;24.70;63.80;;;;;;5026001;28;20861;-71
2022/08/30 07:56:16;;;;;;;48.40;45.50;;;24.90;63.50;;;;;;5026499;28;20841;-71
2022/08/30 07:58:43;;;;;;;48.47;45.77;;;25.20;62.70;;;;;;5024671;28;20547;-71
2022/08/30 08:01:12;;;;;;;56.23;53.00;;;25.00;62.50;;;;;;5026815;28;20476;-71
2022/08/30 08:03:41;;;;;;;54.13;50.90;;;24.80;63.10;;;;;;5025462;28;20492;-71
2022/08/30 08:06:09;;;;;;;60.50;57.03;;;24.70;63.40;;;;;;5024836;28;20566;-70
2022/08/30 08:08:37;;;;;;;43.63;40.93;;;24.60;63.90;;;;;;5024786;28;20464;-70
2022/08/30 08:11:07;;;;;;;51.83;48.93;;;24.50;64.20;;;;;;5021207;28;20479;-70
2022/08/30 08:13:34;;;;;;;55.83;52.83;;;24.70;63.70;;;;;;5027472;28;20528;-71
2022/08/30 08:16:02;;;;;;;54.30;50.80;;;24.90;63.20;;;;;;5029153;28;20544;-71
2022/08/30 08:18:30;;;;;;;52.93;49.63;;;25.00;62.90;;;;;;5027205;28;20491;-71
2022/08/30 08:20:57;;;;;;;47.50;44.70;;;25.20;62.50;;;;;;5025195;28;20491;-71
2022/08/30 08:23:24;;;;;;;43.30;40.60;;;25.00;62.70;;;;;;5024330;28;20529;-72
2022/08/30 08:25:51;;;;;;;49.10;46.50;;;25.10;62.70;;;;;;5021584;28;20486;-71
2022/08/30 08:28:18;;;;;;;47.57;44.73;;;25.10;62.80;;;;;;5023395;28;20566;-71
2022/08/30 08:30:46;;;;;;;42.50;40.00;;;25.20;62.40;;;;;;5024204;28;20471;-71
2022/08/30 08:33:13;;;;;;;59.73;56.30;;;25.30;62.10;;;;;;5026084;28;20614;-70
2022/08/30 08:35:42;;;;;;;45.93;43.30;;;25.40;62.00;;;;;;5023095;28;20908;-70
2022/08/30 08:38:09;;;;;;;46.90;44.20;;;25.30;62.10;;;;;;5023695;28;20463;-70
2022/08/30 08:40:41;;;;;;;45.73;42.97;;;25.40;62.30;;;;;;5021177;28;20542;-70
2022/08/30 08:43:12;;;;;;;43.83;41.03;;;25.50;61.80;;;;;;5023660;28;20547;-71
2022/08/30 08:45:49;;;;;;;50.37;47.47;;;25.60;61.60;;;;;;5024005;28;20480;-71
2022/08/30 08:48:29;;;;;;;42.10;39.90;;;25.80;61.20;;;;;;5022637;28;20459;-71
2022/08/30 08:53:47;;;;;;;43.90;41.50;;;26.00;60.80;;;;;;5024672;28;20742;-71
2022/08/30 08:56:16;;;;;;;42.30;39.87;;;26.10;60.50;;;;;;5027591;28;20579;-70
2022/08/30 08:58:46;;;;;;;47.00;44.40;;;25.80;61.20;;;;;;5020442;28;20555;-71
2022/08/30 09:01:15;;;;;;;58.13;54.73;;;25.70;61.40;;;;;;5024704;28;20516;-71
2022/08/30 09:03:43;;;;;;;52.30;49.10;;;25.70;61.60;;;;;;5023416;28;20471;-71
2022/08/30 09:06:27;;;;;;;58.70;55.53;;;25.70;61.70;;;;;;5024608;28;20574;-71
2022/08/30 09:08:54;;;;;;;44.40;41.80;;;25.80;61.40;;;;;;5020443;28;20976;-73
2022/08/30 09:11:25;;;;;;;47.20;44.70;;;25.80;61.50;;;;;;5021616;28;20476;-72
2022/08/30 09:13:53;;;;;;;47.97;45.13;;;25.80;61.70;;;;;;5022259;28;20539;-71
2022/08/30 09:16:47;;;;;;;59.03;55.67;;;25.70;61.80;;;;;;5025127;28;20506;-71
2022/08/30 09:19:32;;;;;;;52.83;49.93;;;25.80;61.60;;;;;;5020980;28;20553;-71
2022/08/30 09:22:03;;;;;;;48.53;45.93;;;26.10;60.80;;;;;;5020209;28;20482;-71
2022/08/30 09:24:39;;;;;;;44.83;42.33;;;26.20;60.70;;;;;;5023808;28;20506;-71
2022/08/30 09:27:23;;;;;;;44.77;42.03;;;26.40;59.90;;;;;;5027404;28;20538;-71
2022/08/30 09:29:52;;;;;;;45.23;42.53;;;26.30;60.30;;;;;;5028656;28;20548;-71
2022/08/30 09:32:29;;;;;;;57.90;54.67;;;26.30;60.50;;;;;;5026730;28;20556;-71
2022/08/30 09:34:57;;;;;;;50.43;47.93;;;26.60;59.50;;;;;;5016176;28;20988;-71
2022/08/30 09:37:30;;;;;;;49.47;46.80;;;26.60;59.30;;;;;;5023862;28;20464;-71
2022/08/30 09:39:59;;;;;;;49.60;46.90;;;26.80;59.00;;;;;;5013158;28;21842;-73
2022/08/30 09:42:29;;;;;;;46.70;44.30;;;26.80;58.70;;;;;;5024152;28;20519;-75
2022/08/30 09:45:09;;;;;;;51.77;48.97;;;26.80;58.70;;;;;;5026361;28;20477;-75
2022/08/30 09:47:38;;;;;;;51.73;48.57;;;26.80;58.70;;;;;;5026692;28;20456;-75
2022/08/30 09:50:08;;;;;;;53.30;50.37;;;26.60;58.70;;;;;;5022743;28;20480;-75
2022/08/30 09:52:51;;;;;;;41.50;39.30;;;26.60;59.00;;;;;;5026076;28;20587;-75
2022/08/30 09:55:38;;;;;;;44.20;41.83;;;26.80;58.20;;;;;;5025474;28;20479;-74
2022/08/30 09:58:11;;;;;;;49.77;47.27;;;27.00;57.00;;;;;;5013855;28;20492;-75
2022/08/30 10:00:44;;;;;;;46.83;44.33;;;27.30;56.00;;;;;;5024220;28;20904;-76
2022/08/30 10:03:24;;;;;;;65.97;62.37;;;27.50;55.60;;;;;;5027274;28;20453;-77
2022/08/30 10:05:58;;;;;;;44.93;42.43;;;27.60;54.90;;;;;;5019621;28;20977;-75
2022/08/30 10:08:39;;;;;;;46.87;44.37;;;27.80;53.90;;;;;;5025827;28;20455;-76
2022/08/30 10:11:12;;;;;;;57.30;54.07;;;27.90;54.10;;;;;;5025390;28;20499;-77
2022/08/30 10:13:51;;;;;;;44.27;41.80;;;27.90;54.40;;;;;;5022810;28;20906;-76
2022/08/30 10:16:32;;;;;;;56.33;53.30;;;27.80;54.20;;;;;;5026778;28;20539;-75
2022/08/30 10:19:07;;;;;;;47.70;45.10;;;27.70;54.00;;;;;;5022886;28;20500;-75
2022/08/30 10:21:40;;;;;;;57.40;54.43;;;27.70;52.20;;;;;;5018726;28;20575;-75
2022/08/30 10:24:18;;;;;;;45.87;43.37;;;27.60;53.20;;;;;;5027228;28;20535;-76
2022/08/30 10:26:51;;;;;;;47.57;44.97;;;27.60;54.10;;;;;;5025919;28;20574;-76
2022/08/30 10:29:23;;;;;;;54.80;51.50;;;27.70;53.50;;;;;;5021186;28;20866;-76
2022/08/30 10:31:54;;;;;;;40.97;38.80;;;27.90;52.90;;;;;;5025545;28;20502;-75
2022/08/30 10:34:26;;;;;;;47.97;45.50;;;28.00;51.70;;;;;;5025661;28;20949;-76
2022/08/30 10:36:58;;;;;;;52.43;49.83;;;28.20;50.80;;;;;;5028610;28;20456;-76
2022/08/30 10:39:34;;;;;;;43.10;41.00;;;28.10;51.00;;;;;;5027616;28;20547;-81
2022/08/30 10:42:10;;;;;;;40.20;38.30;;;28.10;50.60;;;;;;5025323;28;20587;-76
2022/08/30 10:44:43;;;;;;;51.03;48.43;;;28.20;48.10;;;;;;5029851;28;20534;-76
2022/08/30 10:47:21;;;;;;;40.83;38.83;;;28.20;48.60;;;;;;5030563;28;20529;-77
2022/08/30 10:49:53;;;;;;;44.30;42.20;;;28.20;49.60;;;;;;5028098;28;20463;-76
2022/08/30 10:52:29;;;;;;;39.27;37.17;;;28.50;48.40;;;;;;5031011;28;21193;-79
2022/08/30 10:55:02;;;;;;;39.90;38.00;;;28.70;47.70;;;;;;5034425;28;20456;-76
2022/08/30 10:57:29;;;;;;;39.40;37.40;;;28.70;47.90;;;;;;5030499;28;20482;-76
2022/08/30 11:00:00;;;;;;;56.27;53.40;;;28.80;48.20;;;;;;5028062;28;20571;-76
2022/08/30 11:03:15;;;;;;;43.97;41.67;;;29.00;48.10;;;;;;5031964;28;20569;-77
2022/08/30 11:06:05;;;;;;;53.77;51.17;;;29.20;47.70;;;;;;5024915;28;20480;-76
2022/08/30 11:08:53;;;;;;;47.83;45.23;;;29.30;47.00;;;;;;5027460;28;20544;-77
2022/08/30 11:11:37;;;;;;;61.73;58.40;;;29.10;46.90;;;;;;5020097;28;20468;-76
2022/08/30 11:14:06;;;;;;;53.63;50.40;;;29.30;48.00;;;;;;5027162;28;20468;-76
2022/08/30 11:16:38;;;;;;;54.03;51.20;;;29.50;47.70;;;;;;5030298;28;20558;-77
2022/08/30 11:19:16;;;;;;;60.77;57.57;;;29.50;47.90;;;;;;5030471;28;20464;-75
2022/08/30 11:21:45;;;;;;;56.33;53.53;;;29.50;48.40;;;;;;5023836;28;20480;-76
2022/08/30 11:24:15;;;;;;;44.90;42.80;;;29.70;47.90;;;;;;5033373;28;20578;-75
2022/08/30 11:27:10;;;;;;;49.67;47.07;;;29.80;47.50;;;;;;5024049;28;20473;-76
2022/08/30 11:29:42;;;;;;;43.17;41.07;;;30.00;47.10;;;;;;5011927;28;20452;-74
2022/08/30 11:32:25;;;;;;;60.63;57.53;;;30.10;46.50;;;;;;5017979;28;20559;-72
2022/08/30 11:35:00;;;;;;;44.17;41.93;;;30.20;46.70;;;;;;5021037;28;20456;-72
2022/08/30 11:37:37;;;;;;;42.87;40.57;;;30.50;47.00;;;;;;5020694;28;20456;-72
2022/08/30 11:40:10;;;;;;;72.60;69.30;;;30.70;45.80;;;;;;5023143;28;20555;-72
2022/08/30 11:42:42;;;;;;;42.37;40.33;;;30.90;45.70;;;;;;5021427;28;20512;-72
2022/08/30 11:45:51;;;;;;;43.40;41.30;;;31.00;45.90;;;;;;5021326;28;20470;-72
2022/08/30 11:48:52;;;;;;;47.10;44.60;;;31.20;45.50;;;;;;5024730;28;21003;-73
2022/08/30 11:51:48;;;;;;;37.90;36.00;;;31.50;45.20;;;;;;4938349;28;21657;-73
2022/08/30 11:54:28;;;;;;;44.23;41.83;;;31.60;45.00;;;;;;4933727;28;20459;-73
2022/08/30 11:57:01;;;;;;;39.47;37.57;;;31.60;45.40;;;;;;4999052;28;20492;-75
2022/08/30 11:59:39;;;;;;;53.63;50.97;;;31.60;44.70;;;;;;5022911;28;21067;-73
2022/08/30 12:02:07;;;;;;;45.93;43.73;;;31.20;44.90;;;;;;5026698;28;20570;-73
2022/08/30 12:04:45;;;;;;;37.83;36.03;;;30.80;45.90;;;;;;5021216;28;20853;-73
2022/08/30 12:07:57;;;;;;;38.40;36.40;;;30.80;46.40;;;;;;5020932;28;20590;-72
2022/08/30 12:10:37;;;;;;;39.17;37.20;;;30.90;46.20;;;;;;5001870;28;20452;-74
2022/08/30 12:13:04;;;;;;;47.50;45.10;;;31.10;46.30;;;;;;5021600;28;20543;-73
2022/08/30 12:15:58;;;;;;;73.97;70.77;;;31.40;45.50;;;;;;5028734;28;20893;-73
2022/08/30 12:18:37;;;;;;;49.47;47.10;;;31.70;44.60;;;;;;5020283;28;20460;-73
2022/08/30 12:21:12;;;;;;;42.37;40.37;;;32.00;43.60;;;;;;5021376;28;20468;-72
2022/08/30 12:23:48;;;;;;;59.57;56.43;;;31.90;44.20;;;;;;5026158;28;20531;-73
2022/08/30 12:26:28;;;;;;;51.53;48.83;;;31.90;43.90;;;;;;5021606;28;21023;-71
2022/08/30 12:29:17;;;;;;;39.00;36.90;;;31.80;44.40;;;;;;5022376;28;21031;-71
2022/08/30 12:31:48;;;;;;;44.40;42.20;;;31.80;44.50;;;;;;5023822;28;20555;-70
2022/08/30 12:34:23;;;;;;;49.23;46.73;;;31.80;44.90;;;;;;5020279;28;21004;-72
2022/08/30 12:36:54;;;;;;;37.67;35.77;;;32.00;45.00;;;;;;5020853;28;20480;-72
2022/08/30 12:39:26;;;;;;;40.53;38.33;;;32.20;44.20;;;;;;5025219;28;20539;-73
2022/08/30 12:41:54;;;;;;;52.80;50.13;;;32.20;43.60;;;;;;5020194;28;21268;-71
2022/08/30 12:44:24;;;;;;;46.60;44.40;;;32.40;44.20;;;;;;5022297;28;20578;-73
2022/08/30 12:46:54;;;;;;;54.80;52.00;;;32.60;43.00;;;;;;5018139;28;20505;-73
2022/08/30 12:49:25;;;;;;;42.83;40.77;;;32.50;42.70;;;;;;5024789;28;20924;-72